<?xml version="1.0" encoding="UTF-8" standalone="no" ?><gpx xmlns="http://www.topografix.com/GPX/1/1" xmlns:gpxx="http://www.garmin.com/xmlschemas/GpxExtensions/v3" xmlns:wptx1="http://www.garmin.com/xmlschemas/WaypointExtension/v1" xmlns:gpxtpx="http://www.garmin.com/xmlschemas/TrackPointExtension/v1" creator="GuideVTT.com" version="1.1" xmlns:xsi="http://www.w3.org/2001/XMLSchema-instance" xsi:schemaLocation="http://www.topografix.com/GPX/1/1 http://www.topografix.com/GPX/1/1/gpx.xsd http://www.garmin.com/xmlschemas/GpxExtensions/v3 http://www8.garmin.com/xmlschemas/GpxExtensionsv3.xsd http://www.garmin.com/xmlschemas/WaypointExtension/v1 http://www8.garmin.com/xmlschemas/WaypointExtensionv1.xsd http://www.garmin.com/xmlschemas/TrackPointExtension/v1 http://www.garmin.com/xmlschemas/TrackPointExtensionv1.xsd">
<metadata><link href="http://www.garmin.com"><text>Garmin International</text></link><time>2013-06-22T15:13:50Z</time></metadata>
<trk><name>parcours33.gpx</name><extensions><gpxx:TrackExtension><gpxx:DisplayColor>Cyan</gpxx:DisplayColor></gpxx:TrackExtension></extensions><trkseg>
<trkpt lat="46.21720000" lon="6.03063330"><ele>454</ele><time>2004-08-25T08:45:22Z</time></trkpt>
<trkpt lat="46.21730000" lon="6.03070000"><ele>457</ele><time>2004-08-25T08:45:54Z</time></trkpt>
<trkpt lat="46.21783330" lon="6.03056670"><ele>461</ele><time>2004-08-25T08:46:21Z</time></trkpt>
<trkpt lat="46.21831670" lon="6.03056670"><ele>463</ele><time>2004-08-25T08:46:41Z</time></trkpt>
<trkpt lat="46.21828330" lon="6.03033330"><ele>463</ele><time>2004-08-25T08:46:47Z</time></trkpt>
<trkpt lat="46.21781670" lon="6.02938330"><ele>467</ele><time>2004-08-25T08:47:14Z</time></trkpt>
<trkpt lat="46.21755000" lon="6.02895000"><ele>469</ele><time>2004-08-25T08:47:27Z</time></trkpt>
<trkpt lat="46.21733330" lon="6.02853330"><ele>471</ele><time>2004-08-25T08:47:40Z</time></trkpt>
<trkpt lat="46.21663330" lon="6.02778330"><ele>472</ele><time>2004-08-25T08:48:13Z</time></trkpt>
<trkpt lat="46.21491670" lon="6.02683330"><ele>470</ele><time>2004-08-25T08:49:13Z</time></trkpt>
<trkpt lat="46.21395000" lon="6.02618330"><ele>474</ele><time>2004-08-25T08:49:51Z</time></trkpt>
<trkpt lat="46.21366670" lon="6.02586670"><ele>475</ele><time>2004-08-25T08:50:03Z</time></trkpt>
<trkpt lat="46.21348330" lon="6.02550000"><ele>478</ele><time>2004-08-25T08:50:15Z</time></trkpt>
<trkpt lat="46.21250000" lon="6.02305000"><ele>486</ele><time>2004-08-25T08:51:25Z</time></trkpt>
<trkpt lat="46.21223330" lon="6.02263330"><ele>487</ele><time>2004-08-25T08:51:39Z</time></trkpt>
<trkpt lat="46.21183330" lon="6.02241670"><ele>489</ele><time>2004-08-25T08:51:53Z</time></trkpt>
<trkpt lat="46.21128330" lon="6.02196670"><ele>489</ele><time>2004-08-25T08:52:12Z</time></trkpt>
<trkpt lat="46.21098330" lon="6.02156670"><ele>490</ele><time>2004-08-25T08:52:25Z</time></trkpt>
<trkpt lat="46.21068330" lon="6.02133330"><ele>491</ele><time>2004-08-25T08:52:35Z</time></trkpt>
<trkpt lat="46.21068330" lon="6.02071670"><ele>490</ele><time>2004-08-25T08:52:42Z</time></trkpt>
<trkpt lat="46.21065000" lon="6.02051670"><ele>490</ele><time>2004-08-25T08:52:44Z</time></trkpt>
<trkpt lat="46.21063330" lon="6.02010000"><ele>489</ele><time>2004-08-25T08:52:48Z</time></trkpt>
<trkpt lat="46.21068330" lon="6.01901670"><ele>488</ele><time>2004-08-25T08:52:57Z</time></trkpt>
<trkpt lat="46.21060000" lon="6.01855000"><ele>485</ele><time>2004-08-25T08:53:04Z</time></trkpt>
<trkpt lat="46.21063330" lon="6.01825000"><ele>483</ele><time>2004-08-25T08:53:09Z</time></trkpt>
<trkpt lat="46.21145000" lon="6.01638330"><ele>474</ele><time>2004-08-25T08:53:35Z</time></trkpt>
<trkpt lat="46.21155000" lon="6.01608330"><ele>473</ele><time>2004-08-25T08:53:38Z</time></trkpt>
<trkpt lat="46.21168330" lon="6.01533330"><ele>473</ele><time>2004-08-25T08:53:45Z</time></trkpt>
<trkpt lat="46.21185000" lon="6.01498330"><ele>473</ele><time>2004-08-25T08:53:49Z</time></trkpt>
<trkpt lat="46.21221670" lon="6.01446670"><ele>476</ele><time>2004-08-25T08:53:58Z</time></trkpt>
<trkpt lat="46.21276670" lon="6.01346670"><ele>478</ele><time>2004-08-25T08:54:18Z</time></trkpt>
<trkpt lat="46.21325000" lon="6.01296670"><ele>476</ele><time>2004-08-25T08:54:28Z</time></trkpt>
<trkpt lat="46.21396670" lon="6.01226670"><ele>477</ele><time>2004-08-25T08:54:45Z</time></trkpt>
<trkpt lat="46.21460000" lon="6.01146670"><ele>475</ele><time>2004-08-25T08:55:02Z</time></trkpt>
<trkpt lat="46.21521670" lon="6.00983330"><ele>469</ele><time>2004-08-25T08:55:23Z</time></trkpt>
<trkpt lat="46.21560000" lon="6.00901670"><ele>470</ele><time>2004-08-25T08:55:35Z</time></trkpt>
<trkpt lat="46.21583330" lon="6.00815000"><ele>467</ele><time>2004-08-25T08:55:47Z</time></trkpt>
<trkpt lat="46.21608330" lon="6.00711670"><ele>465</ele><time>2004-08-25T08:56:00Z</time></trkpt>
<trkpt lat="46.21625000" lon="6.00511670"><ele>463</ele><time>2004-08-25T08:56:24Z</time></trkpt>
<trkpt lat="46.21623330" lon="6.00425000"><ele>463</ele><time>2004-08-25T08:56:30Z</time></trkpt>
<trkpt lat="46.21643330" lon="6.00345000"><ele>463</ele><time>2004-08-25T08:56:36Z</time></trkpt>
<trkpt lat="46.21663330" lon="6.00305000"><ele>463</ele><time>2004-08-25T08:56:39Z</time></trkpt>
<trkpt lat="46.21768330" lon="6.00066670"><ele>462</ele><time>2004-08-25T08:56:56Z</time></trkpt>
<trkpt lat="46.21706670" lon="5.99848330"><ele>459</ele><time>2004-08-25T08:57:18Z</time></trkpt>
<trkpt lat="46.21708330" lon="5.99861670"><ele>448</ele><time>2004-08-25T08:57:25Z</time></trkpt>
<trkpt lat="46.21721670" lon="5.99836670"><ele>428</ele><time>2004-08-25T08:57:52Z</time></trkpt>
<trkpt lat="46.21725000" lon="5.99818330"><ele>426</ele><time>2004-08-25T08:57:56Z</time></trkpt>
<trkpt lat="46.21721670" lon="5.99780000"><ele>422</ele><time>2004-08-25T08:58:02Z</time></trkpt>
<trkpt lat="46.21668330" lon="5.99693330"><ele>415</ele><time>2004-08-25T08:58:18Z</time></trkpt>
<trkpt lat="46.21608330" lon="5.99603330"><ele>411</ele><time>2004-08-25T08:58:37Z</time></trkpt>
<trkpt lat="46.21568330" lon="5.99540000"><ele>412</ele><time>2004-08-25T08:58:53Z</time></trkpt>
<trkpt lat="46.21533330" lon="5.99493330"><ele>409</ele><time>2004-08-25T08:59:07Z</time></trkpt>
<trkpt lat="46.21493330" lon="5.99461670"><ele>408</ele><time>2004-08-25T08:59:21Z</time></trkpt>
<trkpt lat="46.21466670" lon="5.99428330"><ele>409</ele><time>2004-08-25T08:59:33Z</time></trkpt>
<trkpt lat="46.21425000" lon="5.99398330"><ele>407</ele><time>2004-08-25T08:59:45Z</time></trkpt>
<trkpt lat="46.21371670" lon="5.99393330"><ele>406</ele><time>2004-08-25T08:59:58Z</time></trkpt>
<trkpt lat="46.21216670" lon="5.99393330"><ele>402</ele><time>2004-08-25T09:00:31Z</time></trkpt>
<trkpt lat="46.21116670" lon="5.99406670"><ele>400</ele><time>2004-08-25T09:00:52Z</time></trkpt>
<trkpt lat="46.21058330" lon="5.99401670"><ele>398</ele><time>2004-08-25T09:01:05Z</time></trkpt>
<trkpt lat="46.20990000" lon="5.99348330"><ele>398</ele><time>2004-08-25T09:01:23Z</time></trkpt>
<trkpt lat="46.20985000" lon="5.99335000"><ele>400</ele><time>2004-08-25T09:01:31Z</time></trkpt>
<trkpt lat="46.20990000" lon="5.99335000"><ele>397</ele><time>2004-08-25T09:01:53Z</time></trkpt>
<trkpt lat="46.20916670" lon="5.99198330"><ele>401</ele><time>2004-08-25T09:04:32Z</time></trkpt>
<trkpt lat="46.20885000" lon="5.99153330"><ele>401</ele><time>2004-08-25T09:04:47Z</time></trkpt>
<trkpt lat="46.20851670" lon="5.99135000"><ele>405</ele><time>2004-08-25T09:05:04Z</time></trkpt>
<trkpt lat="46.20826670" lon="5.99135000"><ele>405</ele><time>2004-08-25T09:05:16Z</time></trkpt>
<trkpt lat="46.20795000" lon="5.99141670"><ele>405</ele><time>2004-08-25T09:05:21Z</time></trkpt>
<trkpt lat="46.20776670" lon="5.99146670"><ele>405</ele><time>2004-08-25T09:05:24Z</time></trkpt>
<trkpt lat="46.20758330" lon="5.99156670"><ele>405</ele><time>2004-08-25T09:05:28Z</time></trkpt>
<trkpt lat="46.20680000" lon="5.99226670"><ele>408</ele><time>2004-08-25T09:05:45Z</time></trkpt>
<trkpt lat="46.20418330" lon="5.99433330"><ele>399</ele><time>2004-08-25T09:06:36Z</time></trkpt>
<trkpt lat="46.20371670" lon="5.99461670"><ele>398</ele><time>2004-08-25T09:06:45Z</time></trkpt>
<trkpt lat="46.20275000" lon="5.99455000"><ele>398</ele><time>2004-08-25T09:07:09Z</time></trkpt>
<trkpt lat="46.20250000" lon="5.99468330"><ele>399</ele><time>2004-08-25T09:07:21Z</time></trkpt>
<trkpt lat="46.20193330" lon="5.99478330"><ele>399</ele><time>2004-08-25T09:07:47Z</time></trkpt>
<trkpt lat="46.20160000" lon="5.99498330"><ele>400</ele><time>2004-08-25T09:08:09Z</time></trkpt>
<trkpt lat="46.20126670" lon="5.99526670"><ele>401</ele><time>2004-08-25T09:08:29Z</time></trkpt>
<trkpt lat="46.20098330" lon="5.99566670"><ele>403</ele><time>2004-08-25T09:08:52Z</time></trkpt>
<trkpt lat="46.20081670" lon="5.99603330"><ele>411</ele><time>2004-08-25T09:09:11Z</time></trkpt>
<trkpt lat="46.20071670" lon="5.99618330"><ele>420</ele><time>2004-08-25T09:09:25Z</time></trkpt>
<trkpt lat="46.20050000" lon="5.99625000"><ele>429</ele><time>2004-08-25T09:09:51Z</time></trkpt>
<trkpt lat="46.20021670" lon="5.99615000"><ele>434</ele><time>2004-08-25T09:10:20Z</time></trkpt>
<trkpt lat="46.20005000" lon="5.99616670"><ele>435</ele><time>2004-08-25T09:12:17Z</time></trkpt>
<trkpt lat="46.19978330" lon="5.99610000"><ele>436</ele><time>2004-08-25T09:12:30Z</time></trkpt>
<trkpt lat="46.19828330" lon="5.99560000"><ele>434</ele><time>2004-08-25T09:13:27Z</time></trkpt>
<trkpt lat="46.19738330" lon="5.99558330"><ele>436</ele><time>2004-08-25T09:13:54Z</time></trkpt>
<trkpt lat="46.19701670" lon="5.99550000"><ele>438</ele><time>2004-08-25T09:14:11Z</time></trkpt>
<trkpt lat="46.19676670" lon="5.99536670"><ele>439</ele><time>2004-08-25T09:14:24Z</time></trkpt>
<trkpt lat="46.19653330" lon="5.99520000"><ele>439</ele><time>2004-08-25T09:14:37Z</time></trkpt>
<trkpt lat="46.19631670" lon="5.99496670"><ele>439</ele><time>2004-08-25T09:14:50Z</time></trkpt>
<trkpt lat="46.19608330" lon="5.99458330"><ele>438</ele><time>2004-08-25T09:15:13Z</time></trkpt>
<trkpt lat="46.19615000" lon="5.99455000"><ele>438</ele><time>2004-08-25T09:16:57Z</time></trkpt>
<trkpt lat="46.19603330" lon="5.99445000"><ele>435</ele><time>2004-08-25T09:17:30Z</time></trkpt>
<trkpt lat="46.19588330" lon="5.99410000"><ele>434</ele><time>2004-08-25T09:17:43Z</time></trkpt>
<trkpt lat="46.19573330" lon="5.99388330"><ele>437</ele><time>2004-08-25T09:18:06Z</time></trkpt>
<trkpt lat="46.19626670" lon="5.99193330"><ele>447</ele><time>2004-08-25T09:19:17Z</time></trkpt>
<trkpt lat="46.19690000" lon="5.99071670"><ele>450</ele><time>2004-08-25T09:20:04Z</time></trkpt>
<trkpt lat="46.19705000" lon="5.99036670"><ele>451</ele><time>2004-08-25T09:20:17Z</time></trkpt>
<trkpt lat="46.19721670" lon="5.99010000"><ele>451</ele><time>2004-08-25T09:20:29Z</time></trkpt>
<trkpt lat="46.19870000" lon="5.98711670"><ele>458</ele><time>2004-08-25T09:29:04Z</time></trkpt>
<trkpt lat="46.20013330" lon="5.98423330"><ele>464</ele><time>2004-08-25T09:31:31Z</time></trkpt>
<trkpt lat="46.20040000" lon="5.98380000"><ele>463</ele><time>2004-08-25T09:31:46Z</time></trkpt>
<trkpt lat="46.20085000" lon="5.98318330"><ele>461</ele><time>2004-08-25T09:32:07Z</time></trkpt>
<trkpt lat="46.20103330" lon="5.98276670"><ele>460</ele><time>2004-08-25T09:32:13Z</time></trkpt>
<trkpt lat="46.20131670" lon="5.98133330"><ele>460</ele><time>2004-08-25T09:32:27Z</time></trkpt>
<trkpt lat="46.20193330" lon="5.97953330"><ele>459</ele><time>2004-08-25T09:32:43Z</time></trkpt>
<trkpt lat="46.20280000" lon="5.97868330"><ele>458</ele><time>2004-08-25T09:32:53Z</time></trkpt>
<trkpt lat="46.20311670" lon="5.97863330"><ele>457</ele><time>2004-08-25T09:32:57Z</time></trkpt>
<trkpt lat="46.20331670" lon="5.97850000"><ele>452</ele><time>2004-08-25T09:33:03Z</time></trkpt>
<trkpt lat="46.20343330" lon="5.97795000"><ele>449</ele><time>2004-08-25T09:33:18Z</time></trkpt>
<trkpt lat="46.20351670" lon="5.97741670"><ele>449</ele><time>2004-08-25T09:33:28Z</time></trkpt>
<trkpt lat="46.20365000" lon="5.97715000"><ele>449</ele><time>2004-08-25T09:33:36Z</time></trkpt>
<trkpt lat="46.20386670" lon="5.97730000"><ele>450</ele><time>2004-08-25T09:33:45Z</time></trkpt>
<trkpt lat="46.20418330" lon="5.97945000"><ele>457</ele><time>2004-08-25T09:34:37Z</time></trkpt>
<trkpt lat="46.20430000" lon="5.98000000"><ele>460</ele><time>2004-08-25T09:34:52Z</time></trkpt>
<trkpt lat="46.20441670" lon="5.98033330"><ele>462</ele><time>2004-08-25T09:35:05Z</time></trkpt>
<trkpt lat="46.20505000" lon="5.98043330"><ele>459</ele><time>2004-08-25T09:35:30Z</time></trkpt>
<trkpt lat="46.20848330" lon="5.98073330"><ele>452</ele><time>2004-08-25T09:36:51Z</time></trkpt>
<trkpt lat="46.20865000" lon="5.98095000"><ele>452</ele><time>2004-08-25T09:36:56Z</time></trkpt>
<trkpt lat="46.20976670" lon="5.98341670"><ele>462</ele><time>2004-08-25T09:37:48Z</time></trkpt>
<trkpt lat="46.20991670" lon="5.98398330"><ele>463</ele><time>2004-08-25T09:38:01Z</time></trkpt>
<trkpt lat="46.20975000" lon="5.98511670"><ele>461</ele><time>2004-08-25T09:38:23Z</time></trkpt>
<trkpt lat="46.20981670" lon="5.98698330"><ele>458</ele><time>2004-08-25T09:38:50Z</time></trkpt>
<trkpt lat="46.20988330" lon="5.98730000"><ele>456</ele><time>2004-08-25T09:39:07Z</time></trkpt>
<trkpt lat="46.21011670" lon="5.98746670"><ele>453</ele><time>2004-08-25T09:40:39Z</time></trkpt>
<trkpt lat="46.21045000" lon="5.98796670"><ele>448</ele><time>2004-08-25T09:40:49Z</time></trkpt>
<trkpt lat="46.21083330" lon="5.98883330"><ele>441</ele><time>2004-08-25T09:41:01Z</time></trkpt>
<trkpt lat="46.21111670" lon="5.98961670"><ele>436</ele><time>2004-08-25T09:41:16Z</time></trkpt>
<trkpt lat="46.21128330" lon="5.99021670"><ele>434</ele><time>2004-08-25T09:41:28Z</time></trkpt>
<trkpt lat="46.21135000" lon="5.99043330"><ele>436</ele><time>2004-08-25T09:43:20Z</time></trkpt>
<trkpt lat="46.21165000" lon="5.99150000"><ele>429</ele><time>2004-08-25T09:43:39Z</time></trkpt>
<trkpt lat="46.21205000" lon="5.99250000"><ele>427</ele><time>2004-08-25T09:43:55Z</time></trkpt>
<trkpt lat="46.21205000" lon="5.99268330"><ele>427</ele><time>2004-08-25T09:43:58Z</time></trkpt>
<trkpt lat="46.21185000" lon="5.99280000"><ele>426</ele><time>2004-08-25T09:44:02Z</time></trkpt>
<trkpt lat="46.21160000" lon="5.99266670"><ele>426</ele><time>2004-08-25T09:44:06Z</time></trkpt>
<trkpt lat="46.21115000" lon="5.99271670"><ele>419</ele><time>2004-08-25T09:44:11Z</time></trkpt>
<trkpt lat="46.20960000" lon="5.99353330"><ele>402</ele><time>2004-08-25T09:44:27Z</time></trkpt>
<trkpt lat="46.20893330" lon="5.99380000"><ele>400</ele><time>2004-08-25T09:44:35Z</time></trkpt>
<trkpt lat="46.20828330" lon="5.99400000"><ele>401</ele><time>2004-08-25T09:44:58Z</time></trkpt>
<trkpt lat="46.20796670" lon="5.99440000"><ele>405</ele><time>2004-08-25T09:45:18Z</time></trkpt>
<trkpt lat="46.20771670" lon="5.99488330"><ele>409</ele><time>2004-08-25T09:45:38Z</time></trkpt>
<trkpt lat="46.20761670" lon="5.99528330"><ele>414</ele><time>2004-08-25T09:45:54Z</time></trkpt>
<trkpt lat="46.20738330" lon="5.99578330"><ele>418</ele><time>2004-08-25T09:46:13Z</time></trkpt>
<trkpt lat="46.20728330" lon="5.99618330"><ele>419</ele><time>2004-08-25T09:46:27Z</time></trkpt>
<trkpt lat="46.20730000" lon="5.99623330"><ele>418</ele><time>2004-08-25T09:46:28Z</time></trkpt>
<trkpt lat="46.20736670" lon="5.99625000"><ele>418</ele><time>2004-08-25T09:46:32Z</time></trkpt>
<trkpt lat="46.20766670" lon="5.99603330"><ele>423</ele><time>2004-08-25T09:46:48Z</time></trkpt>
<trkpt lat="46.20790000" lon="5.99603330"><ele>426</ele><time>2004-08-25T09:47:01Z</time></trkpt>
<trkpt lat="46.20781670" lon="5.99626670"><ele>428</ele><time>2004-08-25T09:47:09Z</time></trkpt>
<trkpt lat="46.20753330" lon="5.99660000"><ele>432</ele><time>2004-08-25T09:47:23Z</time></trkpt>
<trkpt lat="46.20720000" lon="5.99685000"><ele>436</ele><time>2004-08-25T09:47:40Z</time></trkpt>
<trkpt lat="46.20713330" lon="5.99715000"><ele>436</ele><time>2004-08-25T09:47:51Z</time></trkpt>
<trkpt lat="46.20723330" lon="5.99745000"><ele>437</ele><time>2004-08-25T09:48:04Z</time></trkpt>
<trkpt lat="46.20745000" lon="5.99781670"><ele>437</ele><time>2004-08-25T09:48:20Z</time></trkpt>
<trkpt lat="46.20758330" lon="5.99816670"><ele>439</ele><time>2004-08-25T09:48:33Z</time></trkpt>
<trkpt lat="46.20758330" lon="5.99865000"><ele>441</ele><time>2004-08-25T09:48:48Z</time></trkpt>
<trkpt lat="46.20750000" lon="5.99943330"><ele>443</ele><time>2004-08-25T09:49:13Z</time></trkpt>
<trkpt lat="46.20738330" lon="5.99983330"><ele>443</ele><time>2004-08-25T09:49:27Z</time></trkpt>
<trkpt lat="46.20710000" lon="6.00006670"><ele>444</ele><time>2004-08-25T09:49:41Z</time></trkpt>
<trkpt lat="46.20653330" lon="6.00035000"><ele>446</ele><time>2004-08-25T09:50:07Z</time></trkpt>
<trkpt lat="46.20620000" lon="6.00046670"><ele>446</ele><time>2004-08-25T09:50:22Z</time></trkpt>
<trkpt lat="46.20581670" lon="6.00081670"><ele>447</ele><time>2004-08-25T09:50:42Z</time></trkpt>
<trkpt lat="46.20558330" lon="6.00110000"><ele>448</ele><time>2004-08-25T09:50:55Z</time></trkpt>
<trkpt lat="46.20473330" lon="6.00218330"><ele>449</ele><time>2004-08-25T09:51:46Z</time></trkpt>
<trkpt lat="46.20460000" lon="6.00236670"><ele>451</ele><time>2004-08-25T09:51:59Z</time></trkpt>
<trkpt lat="46.20460000" lon="6.00241670"><ele>444</ele><time>2004-08-25T09:54:46Z</time></trkpt>
<trkpt lat="46.20455000" lon="6.00236670"><ele>450</ele><time>2004-08-25T10:09:05Z</time></trkpt>
<trkpt lat="46.20445000" lon="6.00253330"><ele>451</ele><time>2004-08-25T10:09:13Z</time></trkpt>
<trkpt lat="46.20421670" lon="6.00275000"><ele>449</ele><time>2004-08-25T10:09:39Z</time></trkpt>
<trkpt lat="46.20425000" lon="6.00278330"><ele>448</ele><time>2004-08-25T10:09:48Z</time></trkpt>
<trkpt lat="46.20425000" lon="6.00280000"><ele>445</ele><time>2004-08-25T10:10:13Z</time></trkpt>
<trkpt lat="46.20423330" lon="6.00280000"><ele>444</ele><time>2004-08-25T10:11:44Z</time></trkpt>
<trkpt lat="46.20415000" lon="6.00290000"><ele>445</ele><time>2004-08-25T10:11:52Z</time></trkpt>
<trkpt lat="46.20365000" lon="6.00320000"><ele>445</ele><time>2004-08-25T10:12:12Z</time></trkpt>
<trkpt lat="46.20268330" lon="6.00370000"><ele>442</ele><time>2004-08-25T10:12:40Z</time></trkpt>
<trkpt lat="46.20213330" lon="6.00405000"><ele>440</ele><time>2004-08-25T10:12:57Z</time></trkpt>
<trkpt lat="46.20176670" lon="6.00460000"><ele>439</ele><time>2004-08-25T10:13:12Z</time></trkpt>
<trkpt lat="46.19971670" lon="6.00991670"><ele>428</ele><time>2004-08-25T10:14:23Z</time></trkpt>
<trkpt lat="46.19958330" lon="6.01080000"><ele>426</ele><time>2004-08-25T10:14:34Z</time></trkpt>
<trkpt lat="46.19926670" lon="6.01350000"><ele>423</ele><time>2004-08-25T10:15:10Z</time></trkpt>
<trkpt lat="46.19931670" lon="6.01438330"><ele>421</ele><time>2004-08-25T10:15:22Z</time></trkpt>
<trkpt lat="46.19943330" lon="6.01503330"><ele>421</ele><time>2004-08-25T10:15:32Z</time></trkpt>
<trkpt lat="46.19948330" lon="6.01586670"><ele>421</ele><time>2004-08-25T10:15:46Z</time></trkpt>
<trkpt lat="46.19978330" lon="6.01810000"><ele>420</ele><time>2004-08-25T10:16:30Z</time></trkpt>
<trkpt lat="46.19981670" lon="6.01816670"><ele>419</ele><time>2004-08-25T10:16:32Z</time></trkpt>
<trkpt lat="46.20093330" lon="6.01838330"><ele>420</ele><time>2004-08-25T10:16:55Z</time></trkpt>
<trkpt lat="46.20150000" lon="6.01865000"><ele>422</ele><time>2004-08-25T10:17:06Z</time></trkpt>
<trkpt lat="46.20211670" lon="6.01930000"><ele>423</ele><time>2004-08-25T10:17:20Z</time></trkpt>
<trkpt lat="46.20273330" lon="6.02041670"><ele>426</ele><time>2004-08-25T10:17:47Z</time></trkpt>
<trkpt lat="46.20295000" lon="6.02035000"><ele>426</ele><time>2004-08-25T10:17:55Z</time></trkpt>
<trkpt lat="46.20401670" lon="6.01976670"><ele>435</ele><time>2004-08-25T10:18:32Z</time></trkpt>
<trkpt lat="46.20433330" lon="6.01951670"><ele>438</ele><time>2004-08-25T10:18:47Z</time></trkpt>
<trkpt lat="46.20496670" lon="6.01891670"><ele>441</ele><time>2004-08-25T10:19:22Z</time></trkpt>
<trkpt lat="46.20521670" lon="6.01875000"><ele>444</ele><time>2004-08-25T10:19:33Z</time></trkpt>
<trkpt lat="46.20560000" lon="6.01876670"><ele>448</ele><time>2004-08-25T10:19:49Z</time></trkpt>
<trkpt lat="46.20578330" lon="6.01885000"><ele>450</ele><time>2004-08-25T10:20:00Z</time></trkpt>
<trkpt lat="46.20626670" lon="6.01895000"><ele>453</ele><time>2004-08-25T10:20:47Z</time></trkpt>
<trkpt lat="46.20665000" lon="6.01898330"><ele>455</ele><time>2004-08-25T10:21:02Z</time></trkpt>
<trkpt lat="46.20701670" lon="6.01890000"><ele>458</ele><time>2004-08-25T10:21:16Z</time></trkpt>
<trkpt lat="46.20740000" lon="6.01875000"><ele>460</ele><time>2004-08-25T10:21:31Z</time></trkpt>
<trkpt lat="46.20828330" lon="6.01818330"><ele>463</ele><time>2004-08-25T10:22:05Z</time></trkpt>
<trkpt lat="46.20865000" lon="6.01813330"><ele>466</ele><time>2004-08-25T10:22:21Z</time></trkpt>
<trkpt lat="46.20891670" lon="6.01823330"><ele>468</ele><time>2004-08-25T10:22:33Z</time></trkpt>
<trkpt lat="46.20916670" lon="6.01825000"><ele>470</ele><time>2004-08-25T10:22:44Z</time></trkpt>
<trkpt lat="46.20981670" lon="6.01840000"><ele>474</ele><time>2004-08-25T10:23:13Z</time></trkpt>
<trkpt lat="46.21050000" lon="6.01865000"><ele>476</ele><time>2004-08-25T10:23:40Z</time></trkpt>
<trkpt lat="46.21071670" lon="6.01893330"><ele>477</ele><time>2004-08-25T10:23:51Z</time></trkpt>
<trkpt lat="46.21075000" lon="6.01906670"><ele>477</ele><time>2004-08-25T10:23:55Z</time></trkpt>
<trkpt lat="46.21066670" lon="6.01991670"><ele>481</ele><time>2004-08-25T10:24:16Z</time></trkpt>
<trkpt lat="46.21071670" lon="6.02138330"><ele>487</ele><time>2004-08-25T10:25:01Z</time></trkpt>
<trkpt lat="46.21126670" lon="6.02200000"><ele>490</ele><time>2004-08-25T10:25:26Z</time></trkpt>
<trkpt lat="46.21161670" lon="6.02233330"><ele>491</ele><time>2004-08-25T10:25:36Z</time></trkpt>
<trkpt lat="46.21223330" lon="6.02268330"><ele>489</ele><time>2004-08-25T10:25:47Z</time></trkpt>
<trkpt lat="46.21238330" lon="6.02286670"><ele>489</ele><time>2004-08-25T10:25:50Z</time></trkpt>
<trkpt lat="46.21286670" lon="6.02395000"><ele>485</ele><time>2004-08-25T10:26:04Z</time></trkpt>
<trkpt lat="46.21356670" lon="6.02576670"><ele>475</ele><time>2004-08-25T10:26:23Z</time></trkpt>
<trkpt lat="46.21381670" lon="6.02608330"><ele>473</ele><time>2004-08-25T10:26:27Z</time></trkpt>
<trkpt lat="46.21466670" lon="6.02670000"><ele>467</ele><time>2004-08-25T10:26:38Z</time></trkpt>
<trkpt lat="46.21665000" lon="6.02781670"><ele>467</ele><time>2004-08-25T10:27:09Z</time></trkpt>
<trkpt lat="46.21728330" lon="6.02846670"><ele>465</ele><time>2004-08-25T10:27:34Z</time></trkpt>
<trkpt lat="46.21751670" lon="6.02883330"><ele>464</ele><time>2004-08-25T10:27:45Z</time></trkpt>
<trkpt lat="46.21818330" lon="6.03010000"><ele>458</ele><time>2004-08-25T10:28:07Z</time></trkpt>
<trkpt lat="46.21831670" lon="6.03040000"><ele>458</ele><time>2004-08-25T10:28:12Z</time></trkpt>
<trkpt lat="46.21821670" lon="6.03050000"><ele>457</ele><time>2004-08-25T10:28:16Z</time></trkpt>
<trkpt lat="46.21755000" lon="6.03058330"><ele>454</ele><time>2004-08-25T10:28:27Z</time></trkpt>
<trkpt lat="46.21731670" lon="6.03066670"><ele>452</ele><time>2004-08-25T10:28:33Z</time></trkpt>
</trkseg></trk></gpx>